sensor_id;sensor_type;location;lat;lon;timestamp;temperature;humidity
26821;DHT22;37186;51.394;5.454;2023-06-14T00:01:41;24.60;45.90
26821;DHT22;37186;51.394;5.454;2023-06-14T00:04:41;24.60;45.20
26821;DHT22;37186;51.394;5.454;2023-06-14T00:07:42;24.60;45.20
26821;DHT22;37186;51.394;5.454;2023-06-14T00:10:42;24.50;45.20
26821;DHT22;37186;51.394;5.454;2023-06-14T00:13:43;24.40;45.10
26821;DHT22;37186;51.394;5.454;2023-06-14T00:16:43;24.40;45.10
26821;DHT22;37186;51.394;5.454;2023-06-14T00:19:45;24.40;45.10
26821;DHT22;37186;51.394;5.454;2023-06-14T00:22:46;24.30;45.00
26821;DHT22;37186;51.394;5.454;2023-06-14T00:25:47;24.30;44.90
26821;DHT22;37186;51.394;5.454;2023-06-14T00:28:47;24.20;44.80
26821;DHT22;37186;51.394;5.454;2023-06-14T00:31:48;24.10;44.90
26821;DHT22;37186;51.394;5.454;2023-06-14T00:34:48;24.10;45.00
26821;DHT22;37186;51.394;5.454;2023-06-14T00:37:49;24.10;45.10
26821;DHT22;37186;51.394;5.454;2023-06-14T00:40:49;24.10;45.10
26821;DHT22;37186;51.394;5.454;2023-06-14T00:43:50;24.00;45.20
26821;DHT22;37186;51.394;5.454;2023-06-14T00:46:52;24.00;45.20
26821;DHT22;37186;51.394;5.454;2023-06-14T00:49:53;23.90;45.10
26821;DHT22;37186;51.394;5.454;2023-06-14T00:52:55;23.90;45.30
26821;DHT22;37186;51.394;5.454;2023-06-14T00:55:56;23.80;45.10
26821;DHT22;37186;51.394;5.454;2023-06-14T00:58:57;23.80;45.20
26821;DHT22;37186;51.394;5.454;2023-06-14T01:01:58;23.70;45.20
26821;DHT22;37186;51.394;5.454;2023-06-14T01:04:59;23.70;45.20
26821;DHT22;37186;51.394;5.454;2023-06-14T01:08:28;23.60;45.00
26821;DHT22;37186;51.394;5.454;2023-06-14T01:11:41;23.60;45.10
26821;DHT22;37186;51.394;5.454;2023-06-14T01:14:45;23.50;45.00
26821;DHT22;37186;51.394;5.454;2023-06-14T01:17:49;23.50;45.10
26821;DHT22;37186;51.394;5.454;2023-06-14T01:20:51;23.40;45.10
26821;DHT22;37186;51.394;5.454;2023-06-14T01:23:55;23.40;45.20
26821;DHT22;37186;51.394;5.454;2023-06-14T01:26:57;23.40;45.20
26821;DHT22;37186;51.394;5.454;2023-06-14T01:29:58;23.30;45.20
26821;DHT22;37186;51.394;5.454;2023-06-14T01:32:59;23.30;45.20
26821;DHT22;37186;51.394;5.454;2023-06-14T01:36:01;23.20;45.50
26821;DHT22;37186;51.394;5.454;2023-06-14T01:39:04;23.20;45.40
26821;DHT22;37186;51.394;5.454;2023-06-14T01:42:06;23.10;45.40
26821;DHT22;37186;51.394;5.454;2023-06-14T01:45:07;23.10;45.40
26821;DHT22;37186;51.394;5.454;2023-06-14T01:48:09;23.10;45.50
26821;DHT22;37186;51.394;5.454;2023-06-14T01:51:10;23.10;45.60
26821;DHT22;37186;51.394;5.454;2023-06-14T01:54:11;23.00;45.60
26821;DHT22;37186;51.394;5.454;2023-06-14T01:57:12;23.00;45.60
26821;DHT22;37186;51.394;5.454;2023-06-14T02:00:14;23.00;45.80
26821;DHT22;37186;51.394;5.454;2023-06-14T02:03:15;22.90;45.60
26821;DHT22;37186;51.394;5.454;2023-06-14T02:06:15;22.90;45.60
26821;DHT22;37186;51.394;5.454;2023-06-14T02:09:19;22.80;45.80
26821;DHT22;37186;51.394;5.454;2023-06-14T02:12:19;22.80;45.70
26821;DHT22;37186;51.394;5.454;2023-06-14T02:15:20;22.80;45.50
26821;DHT22;37186;51.394;5.454;2023-06-14T02:18:23;22.70;45.60
26821;DHT22;37186;51.394;5.454;2023-06-14T02:21:23;22.70;45.50
26821;DHT22;37186;51.394;5.454;2023-06-14T02:24:24;22.60;45.50
26821;DHT22;37186;51.394;5.454;2023-06-14T02:27:25;22.60;45.50
26821;DHT22;37186;51.394;5.454;2023-06-14T02:30:25;22.60;45.60
26821;DHT22;37186;51.394;5.454;2023-06-14T02:33:26;22.50;45.40
26821;DHT22;37186;51.394;5.454;2023-06-14T02:36:26;22.50;45.50
26821;DHT22;37186;51.394;5.454;2023-06-14T02:39:27;22.50;45.50
26821;DHT22;37186;51.394;5.454;2023-06-14T02:42:28;22.40;45.50
26821;DHT22;37186;51.394;5.454;2023-06-14T02:45:28;22.40;45.60
26821;DHT22;37186;51.394;5.454;2023-06-14T02:48:29;22.40;45.70
26821;DHT22;37186;51.394;5.454;2023-06-14T02:51:30;22.30;45.70
26821;DHT22;37186;51.394;5.454;2023-06-14T02:54:30;22.30;45.80
26821;DHT22;37186;51.394;5.454;2023-06-14T02:57:31;22.30;45.70
26821;DHT22;37186;51.394;5.454;2023-06-14T03:00:31;22.20;45.80
26821;DHT22;37186;51.394;5.454;2023-06-14T03:03:32;22.20;45.80
26821;DHT22;37186;51.394;5.454;2023-06-14T03:06:33;22.20;45.80
26821;DHT22;37186;51.394;5.454;2023-06-14T03:09:36;22.10;45.80
26821;DHT22;37186;51.394;5.454;2023-06-14T03:12:37;22.10;45.80
26821;DHT22;37186;51.394;5.454;2023-06-14T03:15:38;22.10;46.00
26821;DHT22;37186;51.394;5.454;2023-06-14T03:18:39;22.00;45.80
26821;DHT22;37186;51.394;5.454;2023-06-14T03:21:39;22.00;45.80
26821;DHT22;37186;51.394;5.454;2023-06-14T03:24:44;22.00;45.90
26821;DHT22;37186;51.394;5.454;2023-06-14T03:27:45;21.90;45.80
26821;DHT22;37186;51.394;5.454;2023-06-14T03:30:45;21.90;46.00
26821;DHT22;37186;51.394;5.454;2023-06-14T03:33:46;21.90;46.10
26821;DHT22;37186;51.394;5.454;2023-06-14T03:36:46;21.80;46.10
26821;DHT22;37186;51.394;5.454;2023-06-14T03:39:47;21.80;46.20
26821;DHT22;37186;51.394;5.454;2023-06-14T03:42:48;21.80;46.50
26821;DHT22;37186;51.394;5.454;2023-06-14T03:45:48;21.70;46.10
26821;DHT22;37186;51.394;5.454;2023-06-14T03:48:49;21.70;46.20
26821;DHT22;37186;51.394;5.454;2023-06-14T03:51:49;21.70;46.40
26821;DHT22;37186;51.394;5.454;2023-06-14T03:54:51;21.60;46.30
26821;DHT22;37186;51.394;5.454;2023-06-14T03:57:52;21.60;46.40
26821;DHT22;37186;51.394;5.454;2023-06-14T04:00:52;21.60;46.40
26821;DHT22;37186;51.394;5.454;2023-06-14T04:03:53;21.60;46.50
26821;DHT22;37186;51.394;5.454;2023-06-14T04:06:53;21.50;46.60
26821;DHT22;37186;51.394;5.454;2023-06-14T04:09:55;21.50;46.70
26821;DHT22;37186;51.394;5.454;2023-06-14T04:12:56;21.50;46.80
26821;DHT22;37186;51.394;5.454;2023-06-14T04:15:56;21.40;46.80
26821;DHT22;37186;51.394;5.454;2023-06-14T04:18:57;21.40;46.90
26821;DHT22;37186;51.394;5.454;2023-06-14T04:21:58;21.40;46.80
26821;DHT22;37186;51.394;5.454;2023-06-14T04:25:02;21.40;47.00
26821;DHT22;37186;51.394;5.454;2023-06-14T04:28:02;21.30;46.90
26821;DHT22;37186;51.394;5.454;2023-06-14T04:31:04;21.30;47.00
26821;DHT22;37186;51.394;5.454;2023-06-14T04:34:04;21.30;46.80
26821;DHT22;37186;51.394;5.454;2023-06-14T04:37:06;21.30;47.20
26821;DHT22;37186;51.394;5.454;2023-06-14T04:40:08;21.20;47.60
26821;DHT22;37186;51.394;5.454;2023-06-14T04:43:09;21.20;47.10
26821;DHT22;37186;51.394;5.454;2023-06-14T04:46:12;21.20;47.20
26821;DHT22;37186;51.394;5.454;2023-06-14T04:49:15;21.20;47.20
26821;DHT22;37186;51.394;5.454;2023-06-14T04:52:16;21.20;47.20
26821;DHT22;37186;51.394;5.454;2023-06-14T04:55:17;21.10;47.30
26821;DHT22;37186;51.394;5.454;2023-06-14T04:58:19;21.10;47.50
26821;DHT22;37186;51.394;5.454;2023-06-14T05:01:21;21.10;47.50
26821;DHT22;37186;51.394;5.454;2023-06-14T05:04:23;21.10;47.50
26821;DHT22;37186;51.394;5.454;2023-06-14T05:07:23;21.10;47.50
26821;DHT22;37186;51.394;5.454;2023-06-14T05:10:24;21.10;47.60
26821;DHT22;37186;51.394;5.454;2023-06-14T05:13:25;21.10;47.90
26821;DHT22;37186;51.394;5.454;2023-06-14T05:16:28;21.10;47.80
26821;DHT22;37186;51.394;5.454;2023-06-14T05:19:29;21.00;47.70
26821;DHT22;37186;51.394;5.454;2023-06-14T05:22:30;21.10;47.50
26821;DHT22;37186;51.394;5.454;2023-06-14T05:25:30;21.00;47.50
26821;DHT22;37186;51.394;5.454;2023-06-14T05:28:31;21.00;47.50
26821;DHT22;37186;51.394;5.454;2023-06-14T05:31:31;21.00;47.90
26821;DHT22;37186;51.394;5.454;2023-06-14T05:34:33;21.00;47.70
26821;DHT22;37186;51.394;5.454;2023-06-14T05:37:33;21.00;47.80
26821;DHT22;37186;51.394;5.454;2023-06-14T05:40:34;21.00;47.70
26821;DHT22;37186;51.394;5.454;2023-06-14T05:43:34;21.00;47.90
26821;DHT22;37186;51.394;5.454;2023-06-14T05:46:35;21.00;47.90
26821;DHT22;37186;51.394;5.454;2023-06-14T05:49:35;21.00;47.80
26821;DHT22;37186;51.394;5.454;2023-06-14T05:52:36;21.00;48.00
26821;DHT22;37186;51.394;5.454;2023-06-14T05:55:37;21.00;48.40
26821;DHT22;37186;51.394;5.454;2023-06-14T05:58:37;21.10;48.10
26821;DHT22;37186;51.394;5.454;2023-06-14T06:01:38;21.10;48.10
26821;DHT22;37186;51.394;5.454;2023-06-14T06:04:40;21.10;47.80
26821;DHT22;37186;51.394;5.454;2023-06-14T06:07:41;21.10;48.10
26821;DHT22;37186;51.394;5.454;2023-06-14T06:10:42;21.10;47.70
26821;DHT22;37186;51.394;5.454;2023-06-14T06:13:42;21.10;47.70
26821;DHT22;37186;51.394;5.454;2023-06-14T06:16:43;21.20;47.70
26821;DHT22;37186;51.394;5.454;2023-06-14T06:19:43;21.20;48.10
26821;DHT22;37186;51.394;5.454;2023-06-14T06:22:44;21.20;47.60
26821;DHT22;37186;51.394;5.454;2023-06-14T06:25:44;21.20;47.50
26821;DHT22;37186;51.394;5.454;2023-06-14T06:28:45;21.30;47.50
26821;DHT22;37186;51.394;5.454;2023-06-14T06:31:46;21.30;47.60
26821;DHT22;37186;51.394;5.454;2023-06-14T06:34:46;21.30;47.40
26821;DHT22;37186;51.394;5.454;2023-06-14T06:37:47;21.30;47.70
26821;DHT22;37186;51.394;5.454;2023-06-14T06:40:47;21.30;47.60
26821;DHT22;37186;51.394;5.454;2023-06-14T06:43:48;21.40;48.30
26821;DHT22;37186;51.394;5.454;2023-06-14T06:46:48;21.40;48.50
26821;DHT22;37186;51.394;5.454;2023-06-14T06:49:49;21.40;47.70
26821;DHT22;37186;51.394;5.454;2023-06-14T06:52:49;21.40;48.20
26821;DHT22;37186;51.394;5.454;2023-06-14T06:55:50;21.50;47.50
26821;DHT22;37186;51.394;5.454;2023-06-14T06:58:51;21.60;47.50
26821;DHT22;37186;51.394;5.454;2023-06-14T07:01:51;21.60;47.70
26821;DHT22;37186;51.394;5.454;2023-06-14T07:04:52;21.60;48.30
26821;DHT22;37186;51.394;5.454;2023-06-14T07:07:52;21.60;48.00
26821;DHT22;37186;51.394;5.454;2023-06-14T07:10:53;21.70;48.50
26821;DHT22;37186;51.394;5.454;2023-06-14T07:13:53;21.70;48.10
26821;DHT22;37186;51.394;5.454;2023-06-14T07:16:54;21.70;48.50
26821;DHT22;37186;51.394;5.454;2023-06-14T07:19:55;21.70;47.90
26821;DHT22;37186;51.394;5.454;2023-06-14T07:22:55;21.80;48.00
26821;DHT22;37186;51.394;5.454;2023-06-14T07:25:55;21.80;48.00
26821;DHT22;37186;51.394;5.454;2023-06-14T07:28:56;21.80;48.40
26821;DHT22;37186;51.394;5.454;2023-06-14T07:31:57;21.90;47.70
26821;DHT22;37186;51.394;5.454;2023-06-14T07:34:57;21.90;47.60
26821;DHT22;37186;51.394;5.454;2023-06-14T07:37:57;21.90;47.90
26821;DHT22;37186;51.394;5.454;2023-06-14T07:40:58;22.00;47.90
26821;DHT22;37186;51.394;5.454;2023-06-14T07:43:59;22.00;47.80
26821;DHT22;37186;51.394;5.454;2023-06-14T07:46:59;22.00;47.70
26821;DHT22;37186;51.394;5.454;2023-06-14T07:50:00;22.10;47.90
26821;DHT22;37186;51.394;5.454;2023-06-14T07:53:00;22.10;47.70
26821;DHT22;37186;51.394;5.454;2023-06-14T07:56:01;22.20;47.70
26821;DHT22;37186;51.394;5.454;2023-06-14T07:59:02;22.20;47.70
26821;DHT22;37186;51.394;5.454;2023-06-14T08:02:04;22.20;47.70
26821;DHT22;37186;51.394;5.454;2023-06-14T08:05:05;22.30;47.70
26821;DHT22;37186;51.394;5.454;2023-06-14T08:08:05;22.30;47.50
26821;DHT22;37186;51.394;5.454;2023-06-14T08:11:06;22.30;47.50
26821;DHT22;37186;51.394;5.454;2023-06-14T08:14:08;22.30;48.00
26821;DHT22;37186;51.394;5.454;2023-06-14T08:17:08;22.40;47.80
26821;DHT22;37186;51.394;5.454;2023-06-14T08:20:09;22.40;47.50
26821;DHT22;37186;51.394;5.454;2023-06-14T08:23:11;22.50;47.50
26821;DHT22;37186;51.394;5.454;2023-06-14T08:26:11;22.50;47.70
26821;DHT22;37186;51.394;5.454;2023-06-14T08:29:12;22.50;47.50
26821;DHT22;37186;51.394;5.454;2023-06-14T08:32:12;22.60;47.50
26821;DHT22;37186;51.394;5.454;2023-06-14T08:35:13;22.60;47.50
26821;DHT22;37186;51.394;5.454;2023-06-14T08:38:14;22.70;47.70
26821;DHT22;37186;51.394;5.454;2023-06-14T08:41:20;22.70;47.40
26821;DHT22;37186;51.394;5.454;2023-06-14T08:44:21;22.80;47.30
26821;DHT22;37186;51.394;5.454;2023-06-14T08:47:23;22.80;47.30
26821;DHT22;37186;51.394;5.454;2023-06-14T08:50:27;22.80;47.50
26821;DHT22;37186;51.394;5.454;2023-06-14T08:53:33;22.80;47.50
26821;DHT22;37186;51.394;5.454;2023-06-14T08:56:34;22.90;47.30
26821;DHT22;37186;51.394;5.454;2023-06-14T08:59:35;22.90;47.30
26821;DHT22;37186;51.394;5.454;2023-06-14T09:02:39;22.90;47.20
26821;DHT22;37186;51.394;5.454;2023-06-14T09:05:44;23.00;47.40
26821;DHT22;37186;51.394;5.454;2023-06-14T09:08:46;23.00;47.20
26821;DHT22;37186;51.394;5.454;2023-06-14T09:11:52;23.00;47.10
26821;DHT22;37186;51.394;5.454;2023-06-14T09:14:52;23.10;47.30
26821;DHT22;37186;51.394;5.454;2023-06-14T09:17:53;23.10;47.20
26821;DHT22;37186;51.394;5.454;2023-06-14T09:20:54;23.20;47.10
26821;DHT22;37186;51.394;5.454;2023-06-14T09:23:54;23.20;47.00
26821;DHT22;37186;51.394;5.454;2023-06-14T09:26:55;23.20;46.90
26821;DHT22;37186;51.394;5.454;2023-06-14T09:29:57;23.30;46.90
26821;DHT22;37186;51.394;5.454;2023-06-14T09:32:59;23.30;46.70
26821;DHT22;37186;51.394;5.454;2023-06-14T09:35:59;23.30;46.60
26821;DHT22;37186;51.394;5.454;2023-06-14T09:39:01;23.40;46.50
26821;DHT22;37186;51.394;5.454;2023-06-14T09:42:16;23.40;46.00
26821;DHT22;37186;51.394;5.454;2023-06-14T09:45:18;23.50;46.20
26821;DHT22;37186;51.394;5.454;2023-06-14T09:48:22;23.40;46.20
26821;DHT22;37186;51.394;5.454;2023-06-14T09:51:23;23.50;46.10
26821;DHT22;37186;51.394;5.454;2023-06-14T09:54:26;23.50;46.20
26821;DHT22;37186;51.394;5.454;2023-06-14T09:57:27;23.60;45.80
26821;DHT22;37186;51.394;5.454;2023-06-14T10:00:32;23.60;45.80
26821;DHT22;37186;51.394;5.454;2023-06-14T10:03:35;23.60;46.00
26821;DHT22;37186;51.394;5.454;2023-06-14T10:06:39;23.70;46.20
26821;DHT22;37186;51.394;5.454;2023-06-14T10:09:40;23.80;46.00
26821;DHT22;37186;51.394;5.454;2023-06-14T10:12:44;23.80;45.30
26821;DHT22;37186;51.394;5.454;2023-06-14T10:19:06;23.90;45.60
26821;DHT22;37186;51.394;5.454;2023-06-14T10:22:11;23.90;45.50
26821;DHT22;37186;51.394;5.454;2023-06-14T10:25:13;24.00;45.70
26821;DHT22;37186;51.394;5.454;2023-06-14T10:28:26;24.10;45.70
26821;DHT22;37186;51.394;5.454;2023-06-14T10:31:49;24.10;45.60
26821;DHT22;37186;51.394;5.454;2023-06-14T10:35:01;24.10;45.50
26821;DHT22;37186;51.394;5.454;2023-06-14T10:38:08;24.20;45.50
26821;DHT22;37186;51.394;5.454;2023-06-14T10:41:09;24.30;45.20
26821;DHT22;37186;51.394;5.454;2023-06-14T10:47:25;24.40;45.30
26821;DHT22;37186;51.394;5.454;2023-06-14T10:50:29;24.40;45.10
26821;DHT22;37186;51.394;5.454;2023-06-14T10:53:40;24.50;45.10
26821;DHT22;37186;51.394;5.454;2023-06-14T10:56:47;24.50;45.00
26821;DHT22;37186;51.394;5.454;2023-06-14T10:59:51;24.60;45.00
26821;DHT22;37186;51.394;5.454;2023-06-14T11:03:23;24.60;44.90
26821;DHT22;37186;51.394;5.454;2023-06-14T11:06:54;24.70;45.10
26821;DHT22;37186;51.394;5.454;2023-06-14T11:10:12;24.70;45.10
26821;DHT22;37186;51.394;5.454;2023-06-14T11:13:17;24.80;45.00
26821;DHT22;37186;51.394;5.454;2023-06-14T11:16:18;24.90;44.90
26821;DHT22;37186;51.394;5.454;2023-06-14T11:19:19;24.90;44.40
26821;DHT22;37186;51.394;5.454;2023-06-14T11:22:19;25.00;44.40
26821;DHT22;37186;51.394;5.454;2023-06-14T11:25:21;25.00;44.30
26821;DHT22;37186;51.394;5.454;2023-06-14T11:28:21;25.10;44.60
26821;DHT22;37186;51.394;5.454;2023-06-14T11:31:24;25.10;44.60
26821;DHT22;37186;51.394;5.454;2023-06-14T11:34:25;25.20;44.70
26821;DHT22;37186;51.394;5.454;2023-06-14T11:37:27;25.30;44.80
26821;DHT22;37186;51.394;5.454;2023-06-14T11:40:29;25.30;44.60
26821;DHT22;37186;51.394;5.454;2023-06-14T11:43:29;25.40;44.70
26821;DHT22;37186;51.394;5.454;2023-06-14T11:46:32;25.40;44.60
26821;DHT22;37186;51.394;5.454;2023-06-14T11:49:36;25.50;45.20
26821;DHT22;37186;51.394;5.454;2023-06-14T11:52:37;25.60;44.60
26821;DHT22;37186;51.394;5.454;2023-06-14T11:55:38;25.60;44.30
26821;DHT22;37186;51.394;5.454;2023-06-14T11:58:39;25.70;44.60
26821;DHT22;37186;51.394;5.454;2023-06-14T12:01:43;25.70;44.30
26821;DHT22;37186;51.394;5.454;2023-06-14T12:04:44;25.80;44.40
26821;DHT22;37186;51.394;5.454;2023-06-14T12:07:47;25.80;44.50
26821;DHT22;37186;51.394;5.454;2023-06-14T12:10:51;25.90;44.30
26821;DHT22;37186;51.394;5.454;2023-06-14T12:13:52;25.90;44.10
26821;DHT22;37186;51.394;5.454;2023-06-14T12:17:06;26.00;44.50
26821;DHT22;37186;51.394;5.454;2023-06-14T12:20:12;26.00;44.10
26821;DHT22;37186;51.394;5.454;2023-06-14T12:23:14;26.10;44.40
26821;DHT22;37186;51.394;5.454;2023-06-14T12:26:16;26.10;44.40
26821;DHT22;37186;51.394;5.454;2023-06-14T12:29:19;26.20;44.40
26821;DHT22;37186;51.394;5.454;2023-06-14T12:32:20;26.30;44.40
26821;DHT22;37186;51.394;5.454;2023-06-14T12:35:20;26.30;43.60
26821;DHT22;37186;51.394;5.454;2023-06-14T12:38:21;26.40;44.00
26821;DHT22;37186;51.394;5.454;2023-06-14T12:41:22;26.40;44.00
26821;DHT22;37186;51.394;5.454;2023-06-14T12:44:23;26.50;44.30
26821;DHT22;37186;51.394;5.454;2023-06-14T12:47:23;26.50;44.10
26821;DHT22;37186;51.394;5.454;2023-06-14T12:50:24;26.50;44.10
26821;DHT22;37186;51.394;5.454;2023-06-14T12:53:24;26.60;44.40
26821;DHT22;37186;51.394;5.454;2023-06-14T12:56:25;26.70;44.40
26821;DHT22;37186;51.394;5.454;2023-06-14T12:59:26;26.70;44.20
26821;DHT22;37186;51.394;5.454;2023-06-14T13:02:33;26.80;44.40
26821;DHT22;37186;51.394;5.454;2023-06-14T13:05:33;26.80;44.20
26821;DHT22;37186;51.394;5.454;2023-06-14T13:08:34;26.90;44.20
26821;DHT22;37186;51.394;5.454;2023-06-14T13:11:35;26.90;44.10
26821;DHT22;37186;51.394;5.454;2023-06-14T13:14:35;27.00;44.00
26821;DHT22;37186;51.394;5.454;2023-06-14T13:17:36;27.10;44.10
26821;DHT22;37186;51.394;5.454;2023-06-14T13:20:39;27.10;44.10
26821;DHT22;37186;51.394;5.454;2023-06-14T13:23:39;27.20;44.30
26821;DHT22;37186;51.394;5.454;2023-06-14T13:26:40;27.20;44.10
26821;DHT22;37186;51.394;5.454;2023-06-14T13:29:41;27.30;43.90
26821;DHT22;37186;51.394;5.454;2023-06-14T13:32:41;27.30;43.80
26821;DHT22;37186;51.394;5.454;2023-06-14T13:35:42;27.30;42.50
26821;DHT22;37186;51.394;5.454;2023-06-14T13:38:43;27.40;43.50
26821;DHT22;37186;51.394;5.454;2023-06-14T13:41:43;27.50;43.60
26821;DHT22;37186;51.394;5.454;2023-06-14T13:44:44;27.50;43.80
26821;DHT22;37186;51.394;5.454;2023-06-14T13:47:44;27.60;43.60
26821;DHT22;37186;51.394;5.454;2023-06-14T13:50:48;27.60;43.30
26821;DHT22;37186;51.394;5.454;2023-06-14T13:53:49;27.70;43.30
26821;DHT22;37186;51.394;5.454;2023-06-14T13:56:51;27.70;42.80
26821;DHT22;37186;51.394;5.454;2023-06-14T13:59:51;27.70;42.90
26821;DHT22;37186;51.394;5.454;2023-06-14T14:02:53;27.80;42.20
26821;DHT22;37186;51.394;5.454;2023-06-14T14:05:55;27.80;42.20
26821;DHT22;37186;51.394;5.454;2023-06-14T14:08:55;27.90;42.50
26821;DHT22;37186;51.394;5.454;2023-06-14T14:11:56;27.90;42.80
26821;DHT22;37186;51.394;5.454;2023-06-14T14:14:56;28.00;42.80
26821;DHT22;37186;51.394;5.454;2023-06-14T14:17:57;28.00;42.80
26821;DHT22;37186;51.394;5.454;2023-06-14T14:20:58;28.10;42.10
26821;DHT22;37186;51.394;5.454;2023-06-14T14:23:59;28.10;42.60
26821;DHT22;37186;51.394;5.454;2023-06-14T14:26:59;28.20;41.40
26821;DHT22;37186;51.394;5.454;2023-06-14T14:30:00;28.30;42.50
26821;DHT22;37186;51.394;5.454;2023-06-14T14:33:01;28.30;42.40
26821;DHT22;37186;51.394;5.454;2023-06-14T14:36:01;28.40;42.70
26821;DHT22;37186;51.394;5.454;2023-06-14T14:39:04;28.50;42.80
26821;DHT22;37186;51.394;5.454;2023-06-14T14:42:05;28.60;42.60
26821;DHT22;37186;51.394;5.454;2023-06-14T14:45:06;28.70;41.70
26821;DHT22;37186;51.394;5.454;2023-06-14T14:48:07;28.80;42.50
26821;DHT22;37186;51.394;5.454;2023-06-14T14:51:07;28.90;42.50
26821;DHT22;37186;51.394;5.454;2023-06-14T14:54:08;28.90;42.50
26821;DHT22;37186;51.394;5.454;2023-06-14T14:57:08;29.00;40.80
26821;DHT22;37186;51.394;5.454;2023-06-14T15:00:09;29.10;41.50
26821;DHT22;37186;51.394;5.454;2023-06-14T15:03:10;29.20;41.60
26821;DHT22;37186;51.394;5.454;2023-06-14T15:06:11;29.40;41.90
26821;DHT22;37186;51.394;5.454;2023-06-14T15:09:11;29.50;42.00
26821;DHT22;37186;51.394;5.454;2023-06-14T15:12:12;29.60;41.40
26821;DHT22;37186;51.394;5.454;2023-06-14T15:15:12;29.80;41.90
26821;DHT22;37186;51.394;5.454;2023-06-14T15:18:13;29.90;41.80
26821;DHT22;37186;51.394;5.454;2023-06-14T15:21:14;30.10;41.60
26821;DHT22;37186;51.394;5.454;2023-06-14T15:24:15;30.30;42.40
26821;DHT22;37186;51.394;5.454;2023-06-14T15:27:15;30.60;42.70
26821;DHT22;37186;51.394;5.454;2023-06-14T15:30:16;30.80;41.20
26821;DHT22;37186;51.394;5.454;2023-06-14T15:33:16;30.90;39.80
26821;DHT22;37186;51.394;5.454;2023-06-14T15:36:17;31.10;42.00
26821;DHT22;37186;51.394;5.454;2023-06-14T15:39:17;31.20;40.10
26821;DHT22;37186;51.394;5.454;2023-06-14T15:42:18;31.40;42.20
26821;DHT22;37186;51.394;5.454;2023-06-14T15:45:18;31.60;41.30
26821;DHT22;37186;51.394;5.454;2023-06-14T15:48:19;31.70;40.90
26821;DHT22;37186;51.394;5.454;2023-06-14T15:51:19;31.80;41.40
26821;DHT22;37186;51.394;5.454;2023-06-14T15:54:20;31.90;41.20
26821;DHT22;37186;51.394;5.454;2023-06-14T15:57:20;32.00;41.50
26821;DHT22;37186;51.394;5.454;2023-06-14T16:00:21;32.10;41.90
26821;DHT22;37186;51.394;5.454;2023-06-14T16:03:22;32.30;41.70
26821;DHT22;37186;51.394;5.454;2023-06-14T16:06:23;32.40;41.50
26821;DHT22;37186;51.394;5.454;2023-06-14T16:09:23;32.50;40.50
26821;DHT22;37186;51.394;5.454;2023-06-14T16:12:24;32.50;40.50
26821;DHT22;37186;51.394;5.454;2023-06-14T16:15:24;32.50;39.00
26821;DHT22;37186;51.394;5.454;2023-06-14T16:18:25;32.40;38.00
26821;DHT22;37186;51.394;5.454;2023-06-14T16:21:26;32.30;38.90
26821;DHT22;37186;51.394;5.454;2023-06-14T16:24:26;32.30;39.00
26821;DHT22;37186;51.394;5.454;2023-06-14T16:27:27;32.20;37.30
26821;DHT22;37186;51.394;5.454;2023-06-14T16:30:27;32.00;38.60
26821;DHT22;37186;51.394;5.454;2023-06-14T16:33:28;31.90;38.40
26821;DHT22;37186;51.394;5.454;2023-06-14T16:36:28;31.80;38.30
26821;DHT22;37186;51.394;5.454;2023-06-14T16:39:29;31.80;37.30
26821;DHT22;37186;51.394;5.454;2023-06-14T16:42:30;31.70;38.20
26821;DHT22;37186;51.394;5.454;2023-06-14T16:45:31;31.60;38.00
26821;DHT22;37186;51.394;5.454;2023-06-14T16:48:32;31.60;37.90
26821;DHT22;37186;51.394;5.454;2023-06-14T16:51:32;31.50;38.60
26821;DHT22;37186;51.394;5.454;2023-06-14T16:54:33;31.50;38.60
26821;DHT22;37186;51.394;5.454;2023-06-14T16:57:33;31.60;38.30
26821;DHT22;37186;51.394;5.454;2023-06-14T17:00:34;31.60;38.40
26821;DHT22;37186;51.394;5.454;2023-06-14T17:03:35;31.70;38.90
26821;DHT22;37186;51.394;5.454;2023-06-14T17:06:36;31.70;38.60
26821;DHT22;37186;51.394;5.454;2023-06-14T17:09:36;31.70;37.00
26821;DHT22;37186;51.394;5.454;2023-06-14T17:12:37;31.60;37.00
26821;DHT22;37186;51.394;5.454;2023-06-14T17:15:38;31.60;36.80
26821;DHT22;37186;51.394;5.454;2023-06-14T17:18:38;31.50;36.80
26821;DHT22;37186;51.394;5.454;2023-06-14T17:21:39;31.50;38.00
26821;DHT22;37186;51.394;5.454;2023-06-14T17:24:42;31.60;37.70
26821;DHT22;37186;51.394;5.454;2023-06-14T17:27:43;31.80;37.90
26821;DHT22;37186;51.394;5.454;2023-06-14T17:30:43;31.90;38.50
26821;DHT22;37186;51.394;5.454;2023-06-14T17:33:44;32.10;37.30
26821;DHT22;37186;51.394;5.454;2023-06-14T17:36:44;32.30;39.20
26821;DHT22;37186;51.394;5.454;2023-06-14T17:39:45;32.50;38.40
26821;DHT22;37186;51.394;5.454;2023-06-14T17:42:45;32.70;39.10
26821;DHT22;37186;51.394;5.454;2023-06-14T17:45:46;32.90;39.40
26821;DHT22;37186;51.394;5.454;2023-06-14T17:48:46;33.10;39.00
26821;DHT22;37186;51.394;5.454;2023-06-14T17:51:47;33.30;39.10
26821;DHT22;37186;51.394;5.454;2023-06-14T17:54:48;33.50;39.30
26821;DHT22;37186;51.394;5.454;2023-06-14T17:57:48;33.60;38.00
26821;DHT22;37186;51.394;5.454;2023-06-14T18:00:50;33.70;38.00
26821;DHT22;37186;51.394;5.454;2023-06-14T18:03:51;33.80;37.70
26821;DHT22;37186;51.394;5.454;2023-06-14T18:06:51;33.80;37.00
26821;DHT22;37186;51.394;5.454;2023-06-14T18:09:52;33.80;37.10
26821;DHT22;37186;51.394;5.454;2023-06-14T18:12:52;33.70;36.30
26821;DHT22;37186;51.394;5.454;2023-06-14T18:15:53;33.60;36.10
26821;DHT22;37186;51.394;5.454;2023-06-14T18:18:53;33.50;34.70
26821;DHT22;37186;51.394;5.454;2023-06-14T18:21:55;33.30;36.00
26821;DHT22;37186;51.394;5.454;2023-06-14T18:24:57;33.20;36.60
26821;DHT22;37186;51.394;5.454;2023-06-14T18:27:58;33.10;36.40
26821;DHT22;37186;51.394;5.454;2023-06-14T18:30:58;33.00;36.00
26821;DHT22;37186;51.394;5.454;2023-06-14T18:33:59;32.80;35.50
26821;DHT22;37186;51.394;5.454;2023-06-14T18:37:00;32.70;35.00
26821;DHT22;37186;51.394;5.454;2023-06-14T18:40:00;32.50;35.70
26821;DHT22;37186;51.394;5.454;2023-06-14T18:43:02;32.40;35.80
26821;DHT22;37186;51.394;5.454;2023-06-14T18:46:03;32.20;35.50
26821;DHT22;37186;51.394;5.454;2023-06-14T18:49:03;32.10;35.80
26821;DHT22;37186;51.394;5.454;2023-06-14T18:52:04;31.90;35.90
26821;DHT22;37186;51.394;5.454;2023-06-14T18:55:05;31.80;35.80
26821;DHT22;37186;51.394;5.454;2023-06-14T18:58:06;31.70;35.90
26821;DHT22;37186;51.394;5.454;2023-06-14T19:01:06;31.50;35.70
26821;DHT22;37186;51.394;5.454;2023-06-14T19:04:07;31.30;35.70
26821;DHT22;37186;51.394;5.454;2023-06-14T19:07:07;31.20;36.00
26821;DHT22;37186;51.394;5.454;2023-06-14T19:10:09;31.10;36.10
26821;DHT22;37186;51.394;5.454;2023-06-14T19:13:09;30.90;36.20